sensor_id;sensor_type;location;lat;lon;timestamp;P1;durP1;ratioP1;P2;durP2;ratioP2
9739;SDS011;4909;42.680;26.324;2023-01-19T00:01:15;5.93;;;2.87;;
9739;SDS011;4909;42.680;26.324;2023-01-19T00:03:42;5.30;;;2.67;;
9739;SDS011;4909;42.680;26.324;2023-01-19T00:06:09;6.40;;;3.10;;
9739;SDS011;4909;42.680;26.324;2023-01-19T00:08:36;7.23;;;2.97;;
9739;SDS011;4909;42.680;26.324;2023-01-19T00:11:03;6.77;;;2.93;;
9739;SDS011;4909;42.680;26.324;2023-01-19T00:13:31;7.37;;;3.10;;
9739;SDS011;4909;42.680;26.324;2023-01-19T00:15:58;7.63;;;3.17;;
9739;SDS011;4909;42.680;26.324;2023-01-19T00:18:26;5.80;;;2.87;;
9739;SDS011;4909;42.680;26.324;2023-01-19T00:21:11;9.60;;;3.57;;
9739;SDS011;4909;42.680;26.324;2023-01-19T00:23:38;4.83;;;2.67;;
9739;SDS011;4909;42.680;26.324;2023-01-19T00:26:06;4.33;;;2.40;;
9739;SDS011;4909;42.680;26.324;2023-01-19T00:28:32;7.57;;;3.10;;
9739;SDS011;4909;42.680;26.324;2023-01-19T00:30:59;9.67;;;3.37;;
9739;SDS011;4909;42.680;26.324;2023-01-19T00:33:27;8.87;;;3.20;;
9739;SDS011;4909;42.680;26.324;2023-01-19T00:35:54;8.03;;;3.40;;
9739;SDS011;4909;42.680;26.324;2023-01-19T00:38:21;9.20;;;3.20;;
9739;SDS011;4909;42.680;26.324;2023-01-19T00:40:48;9.47;;;3.37;;
9739;SDS011;4909;42.680;26.324;2023-01-19T00:43:15;8.07;;;3.73;;
9739;SDS011;4909;42.680;26.324;2023-01-19T00:45:41;8.77;;;3.60;;
9739;SDS011;4909;42.680;26.324;2023-01-19T00:48:08;12.50;;;3.67;;
9739;SDS011;4909;42.680;26.324;2023-01-19T00:50:36;5.73;;;2.80;;
9739;SDS011;4909;42.680;26.324;2023-01-19T00:53:03;9.40;;;3.37;;
9739;SDS011;4909;42.680;26.324;2023-01-19T00:55:30;7.23;;;2.87;;
9739;SDS011;4909;42.680;26.324;2023-01-19T00:57:57;5.87;;;2.80;;
9739;SDS011;4909;42.680;26.324;2023-01-19T01:00:24;8.73;;;3.57;;
9739;SDS011;4909;42.680;26.324;2023-01-19T01:02:51;5.83;;;2.43;;
9739;SDS011;4909;42.680;26.324;2023-01-19T01:05:18;7.30;;;2.90;;
9739;SDS011;4909;42.680;26.324;2023-01-19T01:07:47;11.87;;;3.53;;
9739;SDS011;4909;42.680;26.324;2023-01-19T01:10:15;13.53;;;4.00;;
9739;SDS011;4909;42.680;26.324;2023-01-19T01:12:43;10.97;;;3.60;;
9739;SDS011;4909;42.680;26.324;2023-01-19T01:15:10;7.40;;;2.70;;
9739;SDS011;4909;42.680;26.324;2023-01-19T01:17:38;9.20;;;3.17;;
9739;SDS011;4909;42.680;26.324;2023-01-19T01:20:12;7.03;;;2.87;;
9739;SDS011;4909;42.680;26.324;2023-01-19T01:22:42;8.63;;;3.03;;
9739;SDS011;4909;42.680;26.324;2023-01-19T01:25:12;9.33;;;3.40;;
9739;SDS011;4909;42.680;26.324;2023-01-19T01:27:38;6.13;;;3.03;;
9739;SDS011;4909;42.680;26.324;2023-01-19T01:30:06;6.60;;;2.87;;
9739;SDS011;4909;42.680;26.324;2023-01-19T01:32:34;6.57;;;2.87;;
9739;SDS011;4909;42.680;26.324;2023-01-19T01:35:01;9.47;;;3.47;;
9739;SDS011;4909;42.680;26.324;2023-01-19T01:37:28;8.97;;;3.50;;
9739;SDS011;4909;42.680;26.324;2023-01-19T01:39:55;9.00;;;3.37;;
9739;SDS011;4909;42.680;26.324;2023-01-19T01:42:25;8.90;;;3.37;;
9739;SDS011;4909;42.680;26.324;2023-01-19T01:44:58;13.27;;;4.27;;
9739;SDS011;4909;42.680;26.324;2023-01-19T01:47:27;10.73;;;3.93;;
9739;SDS011;4909;42.680;26.324;2023-01-19T01:50:00;7.50;;;3.23;;
9739;SDS011;4909;42.680;26.324;2023-01-19T01:52:33;9.47;;;3.90;;
9739;SDS011;4909;42.680;26.324;2023-01-19T01:55:04;12.30;;;4.37;;
9739;SDS011;4909;42.680;26.324;2023-01-19T01:57:35;6.77;;;3.37;;
9739;SDS011;4909;42.680;26.324;2023-01-19T02:00:04;8.37;;;3.40;;
9739;SDS011;4909;42.680;26.324;2023-01-19T02:02:32;6.20;;;3.00;;
9739;SDS011;4909;42.680;26.324;2023-01-19T02:05:16;12.60;;;4.40;;
9739;SDS011;4909;42.680;26.324;2023-01-19T02:07:48;7.93;;;3.60;;
9739;SDS011;4909;42.680;26.324;2023-01-19T02:10:35;10.37;;;3.67;;
9739;SDS011;4909;42.680;26.324;2023-01-19T02:13:22;10.77;;;3.97;;
9739;SDS011;4909;42.680;26.324;2023-01-19T02:15:50;8.93;;;3.50;;
9739;SDS011;4909;42.680;26.324;2023-01-19T02:18:18;9.00;;;3.73;;
9739;SDS011;4909;42.680;26.324;2023-01-19T02:20:49;8.37;;;3.60;;
9739;SDS011;4909;42.680;26.324;2023-01-19T02:25:59;8.27;;;3.70;;
9739;SDS011;4909;42.680;26.324;2023-01-19T02:28:26;9.17;;;3.80;;
9739;SDS011;4909;42.680;26.324;2023-01-19T02:30:54;9.80;;;3.50;;
9739;SDS011;4909;42.680;26.324;2023-01-19T02:33:21;8.80;;;3.37;;
9739;SDS011;4909;42.680;26.324;2023-01-19T02:35:49;7.53;;;3.03;;
9739;SDS011;4909;42.680;26.324;2023-01-19T02:38:17;6.70;;;3.40;;
9739;SDS011;4909;42.680;26.324;2023-01-19T02:40:47;9.70;;;3.60;;
9739;SDS011;4909;42.680;26.324;2023-01-19T02:43:15;10.83;;;4.27;;
9739;SDS011;4909;42.680;26.324;2023-01-19T02:45:44;9.63;;;3.47;;
9739;SDS011;4909;42.680;26.324;2023-01-19T02:50:58;7.37;;;3.23;;
9739;SDS011;4909;42.680;26.324;2023-01-19T02:56:36;8.23;;;3.23;;
9739;SDS011;4909;42.680;26.324;2023-01-19T02:59:13;7.87;;;3.07;;
9739;SDS011;4909;42.680;26.324;2023-01-19T03:01:50;8.60;;;3.40;;
9739;SDS011;4909;42.680;26.324;2023-01-19T03:04:32;9.77;;;3.63;;
9739;SDS011;4909;42.680;26.324;2023-01-19T03:07:15;8.73;;;3.40;;
9739;SDS011;4909;42.680;26.324;2023-01-19T03:09:52;7.07;;;3.00;;
9739;SDS011;4909;42.680;26.324;2023-01-19T03:12:29;9.17;;;3.50;;
9739;SDS011;4909;42.680;26.324;2023-01-19T03:14:59;7.47;;;3.40;;
9739;SDS011;4909;42.680;26.324;2023-01-19T03:17:33;8.00;;;3.37;;
9739;SDS011;4909;42.680;26.324;2023-01-19T03:20:02;9.37;;;3.53;;
9739;SDS011;4909;42.680;26.324;2023-01-19T03:22:31;11.87;;;4.17;;
9739;SDS011;4909;42.680;26.324;2023-01-19T03:25:00;8.33;;;3.33;;
9739;SDS011;4909;42.680;26.324;2023-01-19T03:27:29;9.07;;;3.53;;
9739;SDS011;4909;42.680;26.324;2023-01-19T03:30:00;5.50;;;3.03;;
9739;SDS011;4909;42.680;26.324;2023-01-19T03:32:34;13.43;;;4.23;;
9739;SDS011;4909;42.680;26.324;2023-01-19T03:35:06;9.67;;;3.67;;
9739;SDS011;4909;42.680;26.324;2023-01-19T03:37:38;8.47;;;3.83;;
9739;SDS011;4909;42.680;26.324;2023-01-19T03:40:09;9.03;;;3.50;;
9739;SDS011;4909;42.680;26.324;2023-01-19T03:42:38;11.03;;;4.10;;
9739;SDS011;4909;42.680;26.324;2023-01-19T03:45:06;9.90;;;3.77;;
9739;SDS011;4909;42.680;26.324;2023-01-19T03:47:34;8.40;;;3.50;;
9739;SDS011;4909;42.680;26.324;2023-01-19T03:50:02;9.33;;;3.57;;
9739;SDS011;4909;42.680;26.324;2023-01-19T03:52:32;13.23;;;4.17;;
9739;SDS011;4909;42.680;26.324;2023-01-19T03:54:59;8.13;;;3.30;;
9739;SDS011;4909;42.680;26.324;2023-01-19T03:57:27;7.13;;;3.07;;
9739;SDS011;4909;42.680;26.324;2023-01-19T03:59:56;10.77;;;3.77;;
9739;SDS011;4909;42.680;26.324;2023-01-19T04:02:23;7.73;;;3.50;;
9739;SDS011;4909;42.680;26.324;2023-01-19T04:04:50;7.20;;;2.80;;
9739;SDS011;4909;42.680;26.324;2023-01-19T04:07:16;8.27;;;3.53;;
9739;SDS011;4909;42.680;26.324;2023-01-19T04:09:43;9.37;;;3.80;;
9739;SDS011;4909;42.680;26.324;2023-01-19T04:12:10;6.33;;;3.00;;
9739;SDS011;4909;42.680;26.324;2023-01-19T04:14:37;10.40;;;3.80;;
9739;SDS011;4909;42.680;26.324;2023-01-19T04:17:05;16.80;;;5.17;;
9739;SDS011;4909;42.680;26.324;2023-01-19T04:19:32;15.57;;;4.80;;
9739;SDS011;4909;42.680;26.324;2023-01-19T04:21:58;13.73;;;4.20;;
9739;SDS011;4909;42.680;26.324;2023-01-19T04:24:26;9.50;;;3.60;;
9739;SDS011;4909;42.680;26.324;2023-01-19T04:26:52;11.50;;;4.33;;
9739;SDS011;4909;42.680;26.324;2023-01-19T04:29:19;6.03;;;3.03;;
9739;SDS011;4909;42.680;26.324;2023-01-19T04:31:46;8.87;;;3.50;;
9739;SDS011;4909;42.680;26.324;2023-01-19T04:34:14;2.90;;;2.53;;
9739;SDS011;4909;42.680;26.324;2023-01-19T04:36:41;5.57;;;2.80;;
9739;SDS011;4909;42.680;26.324;2023-01-19T04:39:09;3.07;;;2.23;;
9739;SDS011;4909;42.680;26.324;2023-01-19T04:41:36;7.00;;;3.10;;
9739;SDS011;4909;42.680;26.324;2023-01-19T04:44:03;5.30;;;2.40;;
9739;SDS011;4909;42.680;26.324;2023-01-19T04:46:30;2.73;;;1.80;;
9739;SDS011;4909;42.680;26.324;2023-01-19T04:48:57;4.73;;;2.47;;
9739;SDS011;4909;42.680;26.324;2023-01-19T04:51:25;6.90;;;3.23;;
9739;SDS011;4909;42.680;26.324;2023-01-19T04:53:52;6.53;;;2.97;;
9739;SDS011;4909;42.680;26.324;2023-01-19T04:56:19;9.17;;;3.20;;
9739;SDS011;4909;42.680;26.324;2023-01-19T04:58:46;9.30;;;3.07;;
9739;SDS011;4909;42.680;26.324;2023-01-19T05:01:13;10.40;;;3.63;;
9739;SDS011;4909;42.680;26.324;2023-01-19T05:03:39;11.33;;;3.97;;
9739;SDS011;4909;42.680;26.324;2023-01-19T05:06:06;8.10;;;3.17;;
9739;SDS011;4909;42.680;26.324;2023-01-19T05:08:34;11.00;;;3.70;;
9739;SDS011;4909;42.680;26.324;2023-01-19T05:11:01;7.93;;;3.10;;
9739;SDS011;4909;42.680;26.324;2023-01-19T05:13:28;9.10;;;3.23;;
9739;SDS011;4909;42.680;26.324;2023-01-19T05:15:55;11.10;;;3.80;;
9739;SDS011;4909;42.680;26.324;2023-01-19T05:18:21;6.20;;;2.57;;
9739;SDS011;4909;42.680;26.324;2023-01-19T05:20:48;7.83;;;2.77;;
9739;SDS011;4909;42.680;26.324;2023-01-19T05:23:15;9.83;;;3.10;;
9739;SDS011;4909;42.680;26.324;2023-01-19T05:25:43;6.77;;;2.77;;
9739;SDS011;4909;42.680;26.324;2023-01-19T05:28:10;8.37;;;3.17;;
9739;SDS011;4909;42.680;26.324;2023-01-19T05:30:37;9.30;;;3.43;;
9739;SDS011;4909;42.680;26.324;2023-01-19T05:33:04;7.73;;;3.10;;
9739;SDS011;4909;42.680;26.324;2023-01-19T05:35:31;6.10;;;2.60;;
9739;SDS011;4909;42.680;26.324;2023-01-19T05:37:57;6.90;;;2.90;;
9739;SDS011;4909;42.680;26.324;2023-01-19T05:40:24;8.43;;;3.33;;
9739;SDS011;4909;42.680;26.324;2023-01-19T05:42:54;11.00;;;3.60;;
9739;SDS011;4909;42.680;26.324;2023-01-19T05:45:24;7.73;;;3.00;;
9739;SDS011;4909;42.680;26.324;2023-01-19T05:47:52;6.77;;;2.87;;
9739;SDS011;4909;42.680;26.324;2023-01-19T05:50:19;12.70;;;4.17;;
9739;SDS011;4909;42.680;26.324;2023-01-19T05:52:46;8.80;;;3.20;;
9739;SDS011;4909;42.680;26.324;2023-01-19T05:55:12;2.97;;;2.30;;
9739;SDS011;4909;42.680;26.324;2023-01-19T05:57:40;8.53;;;3.20;;
9739;SDS011;4909;42.680;26.324;2023-01-19T06:00:09;12.13;;;4.33;;
9739;SDS011;4909;42.680;26.324;2023-01-19T06:02:37;9.80;;;3.73;;
9739;SDS011;4909;42.680;26.324;2023-01-19T06:05:04;8.97;;;3.60;;
9739;SDS011;4909;42.680;26.324;2023-01-19T06:07:31;10.73;;;4.00;;
9739;SDS011;4909;42.680;26.324;2023-01-19T06:09:58;10.67;;;4.10;;
9739;SDS011;4909;42.680;26.324;2023-01-19T06:12:25;7.37;;;3.07;;
9739;SDS011;4909;42.680;26.324;2023-01-19T06:14:52;10.57;;;4.13;;
9739;SDS011;4909;42.680;26.324;2023-01-19T06:17:20;10.53;;;4.03;;
9739;SDS011;4909;42.680;26.324;2023-01-19T06:19:47;10.50;;;4.00;;
9739;SDS011;4909;42.680;26.324;2023-01-19T06:22:13;12.93;;;4.23;;
9739;SDS011;4909;42.680;26.324;2023-01-19T06:24:40;13.73;;;4.73;;
9739;SDS011;4909;42.680;26.324;2023-01-19T06:27:07;12.87;;;4.43;;
9739;SDS011;4909;42.680;26.324;2023-01-19T06:29:35;10.80;;;4.37;;
9739;SDS011;4909;42.680;26.324;2023-01-19T06:32:02;6.17;;;3.23;;
9739;SDS011;4909;42.680;26.324;2023-01-19T06:34:30;7.10;;;3.47;;
9739;SDS011;4909;42.680;26.324;2023-01-19T06:36:57;9.20;;;3.93;;
9739;SDS011;4909;42.680;26.324;2023-01-19T06:39:24;9.17;;;4.40;;
9739;SDS011;4909;42.680;26.324;2023-01-19T06:41:51;8.33;;;4.13;;
9739;SDS011;4909;42.680;26.324;2023-01-19T06:44:18;6.60;;;3.93;;
9739;SDS011;4909;42.680;26.324;2023-01-19T06:46:45;18.67;;;6.27;;
9739;SDS011;4909;42.680;26.324;2023-01-19T06:49:12;7.63;;;4.60;;
9739;SDS011;4909;42.680;26.324;2023-01-19T06:51:41;10.27;;;5.13;;
9739;SDS011;4909;42.680;26.324;2023-01-19T06:54:09;12.20;;;5.33;;
9739;SDS011;4909;42.680;26.324;2023-01-19T06:56:36;8.40;;;4.87;;
9739;SDS011;4909;42.680;26.324;2023-01-19T06:59:02;11.63;;;5.83;;
9739;SDS011;4909;42.680;26.324;2023-01-19T07:01:29;8.53;;;5.60;;
9739;SDS011;4909;42.680;26.324;2023-01-19T07:03:56;9.67;;;5.47;;
9739;SDS011;4909;42.680;26.324;2023-01-19T07:06:23;8.30;;;5.93;;
9739;SDS011;4909;42.680;26.324;2023-01-19T07:08:52;13.77;;;8.93;;
9739;SDS011;4909;42.680;26.324;2023-01-19T07:11:19;8.70;;;7.90;;
9739;SDS011;4909;42.680;26.324;2023-01-19T07:13:46;12.60;;;10.20;;
9739;SDS011;4909;42.680;26.324;2023-01-19T07:19:01;14.00;;;12.90;;
9739;SDS011;4909;42.680;26.324;2023-01-19T07:21:27;17.43;;;16.13;;
9739;SDS011;4909;42.680;26.324;2023-01-19T07:23:56;16.27;;;15.10;;
9739;SDS011;4909;42.680;26.324;2023-01-19T07:26:23;22.47;;;20.90;;
9739;SDS011;4909;42.680;26.324;2023-01-19T07:28:52;23.40;;;21.93;;
9739;SDS011;4909;42.680;26.324;2023-01-19T07:31:19;24.83;;;23.30;;
9739;SDS011;4909;42.680;26.324;2023-01-19T07:33:46;29.97;;;28.23;;
9739;SDS011;4909;42.680;26.324;2023-01-19T07:36:12;33.17;;;31.27;;
9739;SDS011;4909;42.680;26.324;2023-01-19T07:38:40;30.73;;;29.30;;
9739;SDS011;4909;42.680;26.324;2023-01-19T07:41:08;31.27;;;29.47;;
9739;SDS011;4909;42.680;26.324;2023-01-19T07:43:35;49.85;;;46.35;;
9739;SDS011;4909;42.680;26.324;2023-01-19T07:46:03;46.57;;;44.40;;
9739;SDS011;4909;42.680;26.324;2023-01-19T07:48:31;35.80;;;33.70;;
9739;SDS011;4909;42.680;26.324;2023-01-19T07:50:58;48.47;;;45.47;;
9739;SDS011;4909;42.680;26.324;2023-01-19T07:53:25;37.80;;;35.10;;
9739;SDS011;4909;42.680;26.324;2023-01-19T07:55:53;36.23;;;34.13;;
9739;SDS011;4909;42.680;26.324;2023-01-19T07:58:22;23.43;;;22.10;;
9739;SDS011;4909;42.680;26.324;2023-01-19T08:00:49;23.97;;;22.03;;
9739;SDS011;4909;42.680;26.324;2023-01-19T08:03:15;21.50;;;18.27;;
9739;SDS011;4909;42.680;26.324;2023-01-19T08:05:42;20.70;;;18.87;;
9739;SDS011;4909;42.680;26.324;2023-01-19T08:08:09;17.13;;;15.80;;
9739;SDS011;4909;42.680;26.324;2023-01-19T08:10:36;18.93;;;17.27;;
9739;SDS011;4909;42.680;26.324;2023-01-19T08:13:03;18.23;;;16.57;;
9739;SDS011;4909;42.680;26.324;2023-01-19T08:15:31;18.27;;;16.93;;
9739;SDS011;4909;42.680;26.324;2023-01-19T08:17:59;22.77;;;21.20;;
9739;SDS011;4909;42.680;26.324;2023-01-19T08:20:27;23.60;;;22.10;;
9739;SDS011;4909;42.680;26.324;2023-01-19T08:22:54;35.00;;;32.93;;
9739;SDS011;4909;42.680;26.324;2023-01-19T08:25:24;42.13;;;39.23;;
9739;SDS011;4909;42.680;26.324;2023-01-19T08:27:52;42.27;;;40.17;;
9739;SDS011;4909;42.680;26.324;2023-01-19T08:30:20;51.60;;;49.20;;
9739;SDS011;4909;42.680;26.324;2023-01-19T08:32:52;67.40;;;63.80;;
9739;SDS011;4909;42.680;26.324;2023-01-19T08:35:22;68.27;;;64.80;;
9739;SDS011;4909;42.680;26.324;2023-01-19T08:37:48;66.40;;;62.47;;
9739;SDS011;4909;42.680;26.324;2023-01-19T08:40:15;81.17;;;77.33;;
9739;SDS011;4909;42.680;26.324;2023-01-19T08:42:43;76.27;;;72.60;;
9739;SDS011;4909;42.680;26.324;2023-01-19T08:45:10;56.43;;;53.63;;
9739;SDS011;4909;42.680;26.324;2023-01-19T08:47:37;52.90;;;50.10;;
9739;SDS011;4909;42.680;26.324;2023-01-19T08:50:06;40.50;;;37.73;;
9739;SDS011;4909;42.680;26.324;2023-01-19T08:52:34;39.90;;;37.10;;
9739;SDS011;4909;42.680;26.324;2023-01-19T08:55:01;31.83;;;29.93;;
9739;SDS011;4909;42.680;26.324;2023-01-19T08:57:28;26.87;;;23.50;;
9739;SDS011;4909;42.680;26.324;2023-01-19T08:59:55;20.50;;;18.70;;
9739;SDS011;4909;42.680;26.324;2023-01-19T09:02:21;15.90;;;14.33;;
9739;SDS011;4909;42.680;26.324;2023-01-19T09:04:48;12.77;;;11.57;;
9739;SDS011;4909;42.680;26.324;2023-01-19T09:07:17;16.67;;;12.07;;
9739;SDS011;4909;42.680;26.324;2023-01-19T09:09:44;17.37;;;11.13;;
9739;SDS011;4909;42.680;26.324;2023-01-19T09:12:10;14.77;;;9.77;;
9739;SDS011;4909;42.680;26.324;2023-01-19T09:14:37;10.90;;;7.90;;
9739;SDS011;4909;42.680;26.324;2023-01-19T09:17:04;13.27;;;8.00;;
9739;SDS011;4909;42.680;26.324;2023-01-19T09:19:31;11.00;;;7.23;;
9739;SDS011;4909;42.680;26.324;2023-01-19T09:21:58;11.87;;;7.00;;
9739;SDS011;4909;42.680;26.324;2023-01-19T09:24:26;11.57;;;6.63;;
9739;SDS011;4909;42.680;26.324;2023-01-19T09:26:53;13.03;;;6.90;;
9739;SDS011;4909;42.680;26.324;2023-01-19T09:29:20;15.23;;;7.17;;
9739;SDS011;4909;42.680;26.324;2023-01-19T09:31:47;13.40;;;6.27;;
9739;SDS011;4909;42.680;26.324;2023-01-19T09:34:13;9.00;;;5.50;;
9739;SDS011;4909;42.680;26.324;2023-01-19T09:36:41;9.63;;;5.67;;
9739;SDS011;4909;42.680;26.324;2023-01-19T09:39:08;7.90;;;4.80;;
9739;SDS011;4909;42.680;26.324;2023-01-19T09:41:36;9.60;;;4.87;;
9739;SDS011;4909;42.680;26.324;2023-01-19T09:44:07;11.17;;;4.93;;
9739;SDS011;4909;42.680;26.324;2023-01-19T09:46:42;9.43;;;4.70;;
9739;SDS011;4909;42.680;26.324;2023-01-19T09:49:10;8.30;;;4.43;;
9739;SDS011;4909;42.680;26.324;2023-01-19T09:51:40;21.57;;;7.03;;
9739;SDS011;4909;42.680;26.324;2023-01-19T09:54:11;16.67;;;5.90;;
9739;SDS011;4909;42.680;26.324;2023-01-19T09:56:41;12.97;;;5.57;;
9739;SDS011;4909;42.680;26.324;2023-01-19T09:59:14;6.10;;;4.27;;
9739;SDS011;4909;42.680;26.324;2023-01-19T10:01:46;14.30;;;6.40;;
9739;SDS011;4909;42.680;26.324;2023-01-19T10:04:28;10.20;;;5.40;;
9739;SDS011;4909;42.680;26.324;2023-01-19T10:06:59;9.70;;;5.20;;
9739;SDS011;4909;42.680;26.324;2023-01-19T10:09:34;13.93;;;6.27;;
9739;SDS011;4909;42.680;26.324;2023-01-19T10:12:13;9.27;;;5.37;;
9739;SDS011;4909;42.680;26.324;2023-01-19T10:14:47;9.10;;;5.90;;
9739;SDS011;4909;42.680;26.324;2023-01-19T10:17:25;10.10;;;6.50;;
9739;SDS011;4909;42.680;26.324;2023-01-19T10:20:06;12.80;;;6.50;;
9739;SDS011;4909;42.680;26.324;2023-01-19T10:22:40;11.83;;;6.63;;
9739;SDS011;4909;42.680;26.324;2023-01-19T10:25:09;15.23;;;7.53;;
9739;SDS011;4909;42.680;26.324;2023-01-19T10:27:44;13.80;;;6.17;;
9739;SDS011;4909;42.680;26.324;2023-01-19T10:30:14;13.47;;;7.40;;
9739;SDS011;4909;42.680;26.324;2023-01-19T10:32:45;10.20;;;6.73;;
9739;SDS011;4909;42.680;26.324;2023-01-19T10:35:13;8.97;;;6.60;;
9739;SDS011;4909;42.680;26.324;2023-01-19T10:37:47;9.77;;;6.57;;
9739;SDS011;4909;42.680;26.324;2023-01-19T10:40:16;15.70;;;8.17;;
9739;SDS011;4909;42.680;26.324;2023-01-19T10:42:51;17.07;;;8.37;;
9739;SDS011;4909;42.680;26.324;2023-01-19T10:45:19;12.07;;;7.47;;
9739;SDS011;4909;42.680;26.324;2023-01-19T10:47:48;10.07;;;7.30;;
9739;SDS011;4909;42.680;26.324;2023-01-19T10:50:23;14.80;;;8.50;;
9739;SDS011;4909;42.680;26.324;2023-01-19T10:52:52;12.70;;;8.10;;
9739;SDS011;4909;42.680;26.324;2023-01-19T10:55:26;11.97;;;7.33;;
9739;SDS011;4909;42.680;26.324;2023-01-19T10:57:55;14.67;;;8.20;;
9739;SDS011;4909;42.680;26.324;2023-01-19T11:00:33;9.93;;;6.47;;
9739;SDS011;4909;42.680;26.324;2023-01-19T11:03:02;9.30;;;6.97;;
9739;SDS011;4909;42.680;26.324;2023-01-19T11:05:30;11.37;;;6.97;;
9739;SDS011;4909;42.680;26.324;2023-01-19T11:07:58;20.70;;;8.93;;
9739;SDS011;4909;42.680;26.324;2023-01-19T11:10:25;15.53;;;8.23;;
9739;SDS011;4909;42.680;26.324;2023-01-19T11:12:56;17.30;;;8.90;;
9739;SDS011;4909;42.680;26.324;2023-01-19T11:15:28;9.40;;;6.63;;
9739;SDS011;4909;42.680;26.324;2023-01-19T11:17:57;10.67;;;7.03;;
9739;SDS011;4909;42.680;26.324;2023-01-19T11:20:26;10.67;;;6.67;;
9739;SDS011;4909;42.680;26.324;2023-01-19T11:23:05;12.07;;;7.33;;
9739;SDS011;4909;42.680;26.324;2023-01-19T11:25:43;9.23;;;6.20;;
9739;SDS011;4909;42.680;26.324;2023-01-19T11:28:16;9.73;;;6.60;;
9739;SDS011;4909;42.680;26.324;2023-01-19T11:30:52;13.60;;;7.10;;
9739;SDS011;4909;42.680;26.324;2023-01-19T11:33:23;8.87;;;6.07;;
9739;SDS011;4909;42.680;26.324;2023-01-19T11:36:01;10.60;;;7.00;;
9739;SDS011;4909;42.680;26.324;2023-01-19T11:38:29;9.83;;;6.63;;
9739;SDS011;4909;42.680;26.324;2023-01-19T11:41:07;10.27;;;6.43;;
9739;SDS011;4909;42.680;26.324;2023-01-19T11:43:44;15.10;;;7.70;;
9739;SDS011;4909;42.680;26.324;2023-01-19T11:46:14;17.73;;;7.80;;
9739;SDS011;4909;42.680;26.324;2023-01-19T11:48:42;15.27;;;7.63;;
9739;SDS011;4909;42.680;26.324;2023-01-19T11:51:13;12.70;;;6.83;;
9739;SDS011;4909;42.680;26.324;2023-01-19T11:53:45;15.43;;;7.73;;
9739;SDS011;4909;42.680;26.324;2023-01-19T11:56:14;9.73;;;6.90;;
9739;SDS011;4909;42.680;26.324;2023-01-19T11:58:45;14.60;;;7.93;;
9739;SDS011;4909;42.680;26.324;2023-01-19T12:01:15;7.90;;;6.87;;
9739;SDS011;4909;42.680;26.324;2023-01-19T12:03:46;12.27;;;7.80;;
9739;SDS011;4909;42.680;26.324;2023-01-19T12:06:20;8.47;;;7.20;;
9739;SDS011;4909;42.680;26.324;2023-01-19T12:08:51;13.53;;;8.13;;
9739;SDS011;4909;42.680;26.324;2023-01-19T12:11:21;9.20;;;6.60;;
9739;SDS011;4909;42.680;26.324;2023-01-19T12:13:52;8.60;;;7.07;;
9739;SDS011;4909;42.680;26.324;2023-01-19T12:16:20;11.30;;;7.10;;
9739;SDS011;4909;42.680;26.324;2023-01-19T12:18:50;9.83;;;7.00;;
9739;SDS011;4909;42.680;26.324;2023-01-19T12:21:20;7.97;;;6.67;;
9739;SDS011;4909;42.680;26.324;2023-01-19T12:23:50;16.60;;;8.80;;
9739;SDS011;4909;42.680;26.324;2023-01-19T12:26:27;16.77;;;8.10;;
9739;SDS011;4909;42.680;26.324;2023-01-19T12:28:59;10.13;;;5.23;;
9739;SDS011;4909;42.680;26.324;2023-01-19T12:31:29;13.50;;;5.93;;
9739;SDS011;4909;42.680;26.324;2023-01-19T12:36:58;8.00;;;5.60;;
9739;SDS011;4909;42.680;26.324;2023-01-19T12:39:26;7.77;;;5.17;;
9739;SDS011;4909;42.680;26.324;2023-01-19T12:42:02;11.57;;;6.07;;
9739;SDS011;4909;42.680;26.324;2023-01-19T12:44:33;20.40;;;8.77;;
9739;SDS011;4909;42.680;26.324;2023-01-19T12:47:01;13.70;;;7.30;;
9739;SDS011;4909;42.680;26.324;2023-01-19T12:49:45;8.63;;;6.03;;
9739;SDS011;4909;42.680;26.324;2023-01-19T12:52:21;7.43;;;4.70;;
9739;SDS011;4909;42.680;26.324;2023-01-19T12:54:59;8.30;;;5.67;;
9739;SDS011;4909;42.680;26.324;2023-01-19T12:57:29;12.77;;;6.40;;
9739;SDS011;4909;42.680;26.324;2023-01-19T13:00:01;12.73;;;6.77;;
9739;SDS011;4909;42.680;26.324;2023-01-19T13:05:20;8.90;;;5.83;;
9739;SDS011;4909;42.680;26.324;2023-01-19T13:17:17;9.93;;;6.00;;
9739;SDS011;4909;42.680;26.324;2023-01-19T13:25:59;11.93;;;5.73;;
9739;SDS011;4909;42.680;26.324;2023-01-19T13:28:34;11.77;;;6.20;;
9739;SDS011;4909;42.680;26.324;2023-01-19T13:31:04;7.03;;;5.20;;
9739;SDS011;4909;42.680;26.324;2023-01-19T13:33:46;12.30;;;6.10;;
9739;SDS011;4909;42.680;26.324;2023-01-19T13:36:23;10.53;;;6.17;;
9739;SDS011;4909;42.680;26.324;2023-01-19T13:38:53;6.73;;;4.80;;
9739;SDS011;4909;42.680;26.324;2023-01-19T13:41:23;5.57;;;4.60;;
9739;SDS011;4909;42.680;26.324;2023-01-19T13:43:55;5.90;;;4.57;;
9739;SDS011;4909;42.680;26.324;2023-01-19T13:46:26;6.83;;;4.10;;
9739;SDS011;4909;42.680;26.324;2023-01-19T13:48:55;9.33;;;5.37;;
9739;SDS011;4909;42.680;26.324;2023-01-19T13:51:26;11.67;;;5.47;;
9739;SDS011;4909;42.680;26.324;2023-01-19T13:53:53;8.33;;;4.23;;
9739;SDS011;4909;42.680;26.324;2023-01-19T13:56:21;10.87;;;4.40;;
9739;SDS011;4909;42.680;26.324;2023-01-19T13:58:59;10.30;;;4.90;;
9739;SDS011;4909;42.680;26.324;2023-01-19T14:01:31;4.63;;;3.70;;
9739;SDS011;4909;42.680;26.324;2023-01-19T14:03:59;9.80;;;4.83;;
9739;SDS011;4909;42.680;26.324;2023-01-19T14:06:33;11.43;;;5.20;;
9739;SDS011;4909;42.680;26.324;2023-01-19T14:09:13;10.87;;;5.50;;
9739;SDS011;4909;42.680;26.324;2023-01-19T14:11:45;10.53;;;5.03;;
9739;SDS011;4909;42.680;26.324;2023-01-19T14:14:23;10.23;;;4.83;;
9739;SDS011;4909;42.680;26.324;2023-01-19T14:16:51;6.50;;;3.90;;
9739;SDS011;4909;42.680;26.324;2023-01-19T14:19:19;6.87;;;3.97;;
9739;SDS011;4909;42.680;26.324;2023-01-19T14:21:56;7.40;;;4.30;;
9739;SDS011;4909;42.680;26.324;2023-01-19T14:24:24;7.43;;;4.10;;
9739;SDS011;4909;42.680;26.324;2023-01-19T14:26:53;10.47;;;4.43;;
9739;SDS011;4909;42.680;26.324;2023-01-19T14:29:34;9.87;;;4.37;;
9739;SDS011;4909;42.680;26.324;2023-01-19T14:32:04;3.47;;;3.13;;
9739;SDS011;4909;42.680;26.324;2023-01-19T14:34:42;9.17;;;4.50;;
9739;SDS011;4909;42.680;26.324;2023-01-19T14:37:17;11.87;;;5.30;;
9739;SDS011;4909;42.680;26.324;2023-01-19T14:39:47;9.30;;;4.50;;
9739;SDS011;4909;42.680;26.324;2023-01-19T14:42:18;7.80;;;3.93;;
9739;SDS011;4909;42.680;26.324;2023-01-19T14:44:49;13.83;;;5.57;;
9739;SDS011;4909;42.680;26.324;2023-01-19T14:47:26;3.87;;;3.33;;
9739;SDS011;4909;42.680;26.324;2023-01-19T14:50:03;7.90;;;3.97;;
9739;SDS011;4909;42.680;26.324;2023-01-19T14:52:49;8.00;;;3.90;;
9739;SDS011;4909;42.680;26.324;2023-01-19T14:55:19;10.77;;;4.90;;
9739;SDS011;4909;42.680;26.324;2023-01-19T14:57:49;9.90;;;4.43;;
9739;SDS011;4909;42.680;26.324;2023-01-19T15:00:16;9.23;;;4.00;;
9739;SDS011;4909;42.680;26.324;2023-01-19T15:02:44;9.80;;;4.30;;
9739;SDS011;4909;42.680;26.324;2023-01-19T15:05:13;13.80;;;5.00;;
9739;SDS011;4909;42.680;26.324;2023-01-19T15:07:41;8.40;;;3.80;;
9739;SDS011;4909;42.680;26.324;2023-01-19T15:10:10;6.80;;;3.80;;
9739;SDS011;4909;42.680;26.324;2023-01-19T15:12:40;11.10;;;4.27;;
9739;SDS011;4909;42.680;26.324;2023-01-19T15:15:11;12.57;;;4.70;;
9739;SDS011;4909;42.680;26.324;2023-01-19T15:17:42;6.53;;;3.47;;
9739;SDS011;4909;42.680;26.324;2023-01-19T15:20:11;10.00;;;4.03;;
9739;SDS011;4909;42.680;26.324;2023-01-19T15:22:43;7.97;;;3.50;;
9739;SDS011;4909;42.680;26.324;2023-01-19T15:25:13;4.93;;;3.00;;
9739;SDS011;4909;42.680;26.324;2023-01-19T15:27:42;20.83;;;6.03;;
9739;SDS011;4909;42.680;26.324;2023-01-19T15:30:13;11.33;;;4.17;;
9739;SDS011;4909;42.680;26.324;2023-01-19T15:32:43;8.20;;;3.53;;
9739;SDS011;4909;42.680;26.324;2023-01-19T15:35:11;9.37;;;3.57;;
9739;SDS011;4909;42.680;26.324;2023-01-19T15:37:40;6.13;;;3.20;;
9739;SDS011;4909;42.680;26.324;2023-01-19T15:40:08;7.50;;;3.23;;